Ibitinga, Brazil
Current Conditions -  °F | °C
As of 3:00 PM on Saturday 25 Oct 2014 (Local Time) from SBBU Reporting Station
Light Rain Light Rain  
Wind Chill: 73°   Ceiling: 1500
Heat Index: 73°   Visibility: 4mi
Dew Point: 72°   Wind: 3mph
Humidity: 94%   Direction: 20°NNE
Pressure: 30"   Gusts: NA
Location:  21.76°S, 48.83°W
Report Text: SBBU 251700Z 02003KT 7000 -RA SCT011 BKN015 23/22 Q1016
Loading
Personal Weather Stations






























Interactive Weather Map
Tropical Storm Tracking
New forecast layout! Learn more

10-Day Weather Forecast

Advertisements
Track Severe Weather on mobile